createdAt,value
2019-04-06T00:01:24.067Z,924.19
2019-04-06T00:02:55.875Z,924.20
2019-04-06T00:04:27.692Z,924.18
2019-04-06T00:05:59.509Z,924.23
2019-04-06T00:07:31.329Z,924.31
2019-04-06T00:09:03.147Z,924.36
2019-04-06T00:10:34.965Z,924.40
2019-04-06T00:12:06.835Z,924.42
2019-04-06T00:13:38.606Z,924.46
2019-04-06T00:15:10.526Z,924.47
2019-04-06T00:16:42.246Z,924.46
2019-04-06T00:18:14.059Z,924.49
2019-04-06T00:19:45.876Z,924.47
2019-04-06T00:21:17.695Z,924.49
2019-04-06T00:22:49.517Z,924.47
2019-04-06T00:24:21.336Z,924.53
2019-04-06T00:25:53.389Z,924.51
2019-04-06T00:27:24.991Z,924.56
2019-04-06T00:28:56.812Z,924.58
2019-04-06T00:30:28.701Z,924.61
2019-04-06T00:32:00.937Z,924.59
2019-04-06T00:33:32.344Z,924.57
2019-04-06T00:35:04.062Z,924.56
2019-04-06T00:36:35.880Z,924.56
2019-04-06T00:38:07.703Z,924.59
2019-04-06T00:39:39.616Z,924.55
2019-04-06T00:41:11.334Z,924.58
2019-04-06T00:42:43.155Z,924.63
2019-04-06T00:44:16.867Z,924.63
2019-04-06T00:45:46.789Z,924.65
2019-04-06T00:47:18.620Z,924.69
2019-04-06T00:48:50.429Z,924.74
2019-04-06T00:50:22.256Z,924.72
2019-04-06T00:51:54.180Z,924.71
2019-04-06T00:53:25.880Z,924.72
2019-04-06T00:54:57.698Z,924.69
2019-04-06T00:56:29.516Z,924.75
2019-04-06T00:58:01.333Z,924.78
2019-04-06T00:59:33.155Z,924.84
2019-04-06T01:01:04.972Z,924.85
2019-04-06T01:02:36.789Z,924.84
2019-04-06T01:04:08.605Z,924.82
2019-04-06T01:05:40.423Z,924.83
2019-04-06T01:07:12.246Z,924.90
2019-04-06T01:08:44.060Z,924.86
2019-04-06T01:10:15.979Z,924.92
2019-04-06T01:11:47.697Z,924.93
2019-04-06T01:13:19.535Z,924.91
2019-04-06T01:14:51.333Z,924.86
2019-04-06T01:16:23.151Z,924.89
2019-04-06T01:17:55.018Z,924.86
2019-04-06T01:19:26.787Z,924.82
2019-04-06T01:20:58.610Z,924.83
2019-04-06T01:22:30.528Z,924.82
2019-04-06T01:24:02.265Z,924.82
2019-04-06T01:25:34.145Z,924.84
2019-04-06T01:27:06.120Z,924.83
2019-04-06T01:28:37.822Z,924.81
2019-04-06T01:30:09.520Z,924.80
2019-04-06T01:31:41.333Z,924.80
2019-04-06T01:33:13.150Z,924.81
2019-04-06T01:34:44.968Z,924.82
2019-04-06T01:36:16.815Z,924.79
2019-04-06T01:37:48.605Z,924.74
2019-04-06T01:39:20.493Z,924.73
2019-04-06T01:40:52.254Z,924.70
2019-04-06T01:42:24.061Z,924.69
2019-04-06T01:43:55.876Z,924.66
2019-04-06T01:45:27.699Z,924.64
2019-04-06T01:46:59.620Z,924.65
2019-04-06T01:48:31.332Z,924.64
2019-04-06T01:50:03.162Z,924.62
2019-04-06T01:51:34.966Z,924.62
2019-04-06T01:53:06.783Z,924.60
2019-04-06T01:54:39.056Z,924.55
2019-04-06T01:56:18.308Z,924.56
2019-04-06T01:57:42.236Z,924.53
2019-04-06T01:59:14.127Z,924.54
2019-04-06T02:00:45.949Z,924.54
2019-04-06T02:02:17.690Z,924.53
2019-04-06T02:03:49.508Z,924.50
2019-04-06T02:05:21.427Z,924.52
2019-04-06T02:06:53.221Z,924.53
2019-04-06T02:08:24.961Z,924.51
2019-04-06T02:09:56.779Z,924.52
2019-04-06T02:11:29.093Z,924.55
2019-04-06T02:13:00.408Z,924.56
2019-04-06T02:14:32.226Z,924.60
2019-04-06T02:16:04.044Z,924.56
2019-04-06T02:17:35.863Z,924.57
2019-04-06T02:19:07.685Z,924.53
2019-04-06T02:20:39.499Z,924.51
2019-04-06T02:22:11.316Z,924.51
2019-04-06T02:23:43.233Z,924.54
2019-04-06T02:25:14.950Z,924.55
2019-04-06T02:26:46.767Z,924.55
2019-04-06T02:28:18.585Z,924.53
2019-04-06T02:29:50.403Z,924.52
2019-04-06T02:31:22.222Z,924.55
2019-04-06T02:32:54.042Z,924.57
2019-04-06T02:34:25.915Z,924.63
2019-04-06T02:35:57.674Z,924.63
2019-04-06T02:37:29.496Z,924.65
2019-04-06T02:39:01.313Z,924.66
2019-04-06T02:40:33.179Z,924.66
2019-04-06T02:42:05.161Z,924.66
2019-04-06T02:43:36.764Z,924.67
2019-04-06T02:45:08.582Z,924.68
2019-04-06T02:46:40.415Z,924.71
2019-04-06T02:48:12.217Z,924.74
2019-04-06T02:49:44.041Z,924.73
2019-04-06T02:51:15.856Z,924.70
2019-04-06T02:52:48.043Z,924.67
2019-04-06T02:54:19.490Z,924.70
2019-04-06T02:55:51.328Z,924.71
2019-04-06T02:57:23.155Z,924.73
2019-04-06T02:58:54.963Z,924.69
2019-04-06T03:00:26.859Z,924.74
2019-04-06T03:01:58.578Z,924.75
2019-04-06T03:03:30.396Z,924.73
2019-04-06T03:05:02.418Z,924.74
2019-04-06T03:06:34.052Z,924.77
2019-04-06T03:08:05.848Z,924.72
2019-04-06T03:09:37.674Z,924.71
2019-04-06T03:11:09.487Z,924.72
2019-04-06T03:12:41.361Z,924.74
2019-04-06T03:14:13.244Z,924.74
2019-04-06T03:15:44.934Z,924.76
2019-04-06T03:17:16.772Z,924.77
2019-04-06T03:18:48.886Z,924.79
2019-04-06T03:20:20.387Z,924.79
2019-04-06T03:21:52.221Z,924.81
2019-04-06T03:23:25.324Z,924.83
2019-04-06T03:24:55.843Z,924.84
2019-04-06T03:26:27.780Z,924.85
2019-04-06T03:27:59.539Z,924.90
2019-04-06T03:29:31.290Z,924.90
2019-04-06T03:31:03.466Z,924.91
2019-04-06T03:32:34.926Z,924.85
2019-04-06T03:34:06.766Z,924.89
2019-04-06T03:35:45.443Z,924.88
2019-04-06T03:37:10.929Z,924.89
2019-04-06T03:38:42.209Z,924.89
2019-04-06T03:40:14.016Z,924.87
2019-04-06T03:41:45.837Z,924.85
2019-04-06T03:43:17.751Z,924.86
2019-04-06T03:44:49.518Z,924.86
2019-04-06T03:46:21.577Z,924.89
2019-04-06T03:47:53.103Z,924.93
2019-04-06T03:49:25.095Z,924.94
2019-04-06T03:50:56.749Z,924.98
2019-04-06T03:52:28.553Z,924.95
2019-04-06T03:54:00.368Z,924.94
2019-04-06T03:55:32.500Z,924.94
2019-04-06T03:57:14.476Z,924.92
2019-04-06T03:58:35.821Z,924.91
2019-04-06T04:00:07.637Z,924.90
2019-04-06T04:01:39.469Z,924.93
2019-04-06T04:03:11.483Z,924.93
2019-04-06T04:04:43.107Z,924.94
2019-04-06T04:06:14.913Z,924.86
2019-04-06T04:07:46.723Z,924.85
2019-04-06T04:09:18.541Z,924.88
2019-04-06T04:10:50.360Z,924.89
2019-04-06T04:12:22.176Z,924.86
2019-04-06T04:13:54.376Z,924.86
2019-04-06T04:15:25.880Z,924.87
2019-04-06T04:16:57.777Z,924.92
2019-04-06T04:18:29.517Z,924.91
2019-04-06T04:20:01.343Z,924.95
2019-04-06T04:21:33.158Z,924.96
2019-04-06T04:23:04.899Z,924.97
2019-04-06T04:24:36.713Z,924.98
2019-04-06T04:26:08.864Z,925.02
2019-04-06T04:27:40.348Z,924.99
2019-04-06T04:29:12.360Z,924.98
2019-04-06T04:30:44.144Z,924.95
2019-04-06T04:32:15.905Z,924.96
2019-04-06T04:33:47.627Z,924.90
2019-04-06T04:35:19.437Z,924.94
2019-04-06T04:36:51.253Z,924.90
2019-04-06T04:38:23.074Z,924.87
2019-04-06T04:39:54.888Z,924.87
2019-04-06T04:41:26.707Z,924.84
2019-04-06T04:42:58.522Z,924.82
2019-04-06T04:44:30.513Z,924.79
2019-04-06T04:46:02.164Z,924.80
2019-04-06T04:47:34.013Z,924.77
2019-04-06T04:49:06.112Z,924.78
2019-04-06T04:50:37.772Z,924.74
2019-04-06T04:52:09.436Z,924.71
2019-04-06T04:53:41.245Z,924.69
2019-04-06T04:55:13.063Z,924.67
2019-04-06T04:56:44.881Z,924.67
2019-04-06T04:58:16.699Z,924.71
2019-04-06T04:59:48.516Z,924.70
2019-04-06T05:01:20.338Z,924.64
2019-04-06T05:02:52.263Z,924.64
2019-04-06T05:04:23.981Z,924.65
2019-04-06T05:05:55.791Z,924.64
2019-04-06T05:07:27.602Z,924.61
2019-04-06T05:08:59.520Z,924.62
2019-04-06T05:10:31.237Z,924.61
2019-04-06T05:12:03.059Z,924.56
2019-04-06T05:13:34.876Z,924.58
2019-04-06T05:15:06.689Z,924.54
2019-04-06T05:16:38.510Z,924.58
2019-04-06T05:18:10.329Z,924.59
2019-04-06T05:19:42.304Z,924.61
2019-04-06T05:21:13.967Z,924.68
2019-04-06T05:22:45.775Z,924.70
2019-04-06T05:24:17.592Z,924.70
2019-04-06T05:25:49.413Z,924.70
2019-04-06T05:27:21.540Z,924.66
2019-04-06T05:28:53.048Z,924.66
2019-04-06T05:30:24.860Z,924.68
2019-04-06T05:31:56.677Z,924.68
2019-04-06T05:33:28.493Z,924.74
2019-04-06T05:35:00.310Z,924.78
2019-04-06T05:36:32.129Z,924.75
2019-04-06T05:38:03.954Z,924.76
2019-04-06T05:39:35.762Z,924.75
2019-04-06T05:41:07.578Z,924.72
2019-04-06T05:42:39.399Z,924.73
2019-04-06T05:44:11.214Z,924.73
2019-04-06T05:45:43.229Z,924.71
2019-04-06T05:47:14.978Z,924.68
2019-04-06T05:48:46.662Z,924.69
2019-04-06T05:50:18.676Z,924.70
2019-04-06T05:51:50.295Z,924.66
2019-04-06T05:53:22.295Z,924.63
2019-04-06T05:54:53.930Z,924.61
2019-04-06T05:56:25.747Z,924.60
2019-04-06T05:58:03.366Z,924.57
2019-04-06T05:59:29.376Z,924.52
2019-04-06T06:01:03.709Z,924.50
2019-04-06T06:02:33.010Z,924.51
2019-04-06T06:04:04.929Z,924.47
2019-04-06T06:05:40.249Z,924.50
2019-04-06T06:07:08.462Z,924.51
2019-04-06T06:08:40.277Z,924.51
2019-04-06T06:10:12.095Z,924.45
2019-04-06T06:11:43.939Z,924.44
2019-04-06T06:13:15.732Z,924.39
2019-04-06T06:14:47.547Z,924.39
2019-04-06T06:16:19.361Z,924.40
2019-04-06T06:17:51.178Z,924.42
2019-04-06T06:19:22.997Z,924.42
2019-04-06T06:20:54.811Z,924.40
2019-04-06T06:22:26.727Z,924.37
2019-04-06T06:23:58.673Z,924.37
2019-04-06T06:25:30.523Z,924.42
2019-04-06T06:27:02.077Z,924.41
2019-04-06T06:28:33.898Z,924.46
2019-04-06T06:30:05.709Z,924.45
2019-04-06T06:31:37.537Z,924.39
2019-04-06T06:33:09.346Z,924.39
2019-04-06T06:34:41.159Z,924.39
2019-04-06T06:36:13.156Z,924.40
2019-04-06T06:37:44.857Z,924.39
2019-04-06T06:39:16.614Z,924.41
2019-04-06T06:40:48.527Z,924.37
2019-04-06T06:42:20.246Z,924.38
2019-04-06T06:43:52.152Z,924.40
2019-04-06T06:45:23.878Z,924.39
2019-04-06T06:46:55.794Z,924.42
2019-04-06T06:48:27.555Z,924.40
2019-04-06T06:49:59.326Z,924.41
2019-04-06T06:51:31.142Z,924.45
2019-04-06T06:53:02.959Z,924.44
2019-04-06T06:54:34.776Z,924.49
2019-04-06T06:56:06.605Z,924.50
2019-04-06T06:57:38.409Z,924.53
2019-04-06T06:59:10.528Z,924.56
2019-04-06T07:00:42.056Z,924.57
2019-04-06T07:02:13.860Z,924.57
2019-04-06T07:03:45.689Z,924.55
2019-04-06T07:05:17.493Z,924.58
2019-04-06T07:06:49.378Z,924.54
2019-04-06T07:08:21.125Z,924.55
2019-04-06T07:09:52.946Z,924.52
2019-04-06T07:11:24.895Z,924.55
2019-04-06T07:12:56.609Z,924.51
2019-04-06T07:14:28.446Z,924.54
2019-04-06T07:16:00.210Z,924.56
2019-04-06T07:17:32.128Z,924.57
2019-04-06T07:19:03.844Z,924.58
2019-04-06T07:20:35.930Z,924.58
2019-04-06T07:22:07.625Z,924.58
2019-04-06T07:23:39.294Z,924.58
2019-04-06T07:25:11.114Z,924.59
2019-04-06T07:26:43.071Z,924.60
2019-04-06T07:28:14.746Z,924.59
2019-04-06T07:29:46.685Z,924.59
2019-04-06T07:31:18.387Z,924.58
2019-04-06T07:32:50.376Z,924.60
2019-04-06T07:34:22.017Z,924.57
2019-04-06T07:35:53.928Z,924.55
2019-04-06T07:37:25.646Z,924.56
2019-04-06T07:38:57.465Z,924.58
2019-04-06T07:40:29.278Z,924.59
2019-04-06T07:42:01.098Z,924.65
2019-04-06T07:43:32.912Z,924.65
2019-04-06T07:45:04.732Z,924.64
2019-04-06T07:46:36.548Z,924.65
2019-04-06T07:48:08.463Z,924.67
2019-04-06T07:49:40.183Z,924.67
2019-04-06T07:51:12.008Z,924.68
2019-04-06T07:52:43.815Z,924.69
2019-04-06T07:54:15.845Z,924.74
2019-04-06T07:55:47.452Z,924.79
2019-04-06T07:57:19.265Z,924.81
2019-04-06T07:58:51.083Z,924.83
2019-04-06T08:00:22.898Z,924.88
2019-04-06T08:01:54.715Z,924.91
2019-04-06T08:03:26.532Z,924.94
2019-04-06T08:04:58.353Z,924.97
2019-04-06T08:06:30.175Z,925.00
2019-04-06T08:08:01.990Z,925.06
2019-04-06T08:09:33.800Z,925.08
2019-04-06T08:11:05.616Z,925.07
2019-04-06T08:12:37.638Z,925.09
2019-04-06T08:14:09.435Z,925.14
2019-04-06T08:15:41.073Z,925.22
2019-04-06T08:17:12.884Z,925.21
2019-04-06T08:18:44.896Z,925.25
2019-04-06T08:20:16.518Z,925.32
2019-04-06T08:21:48.337Z,925.29
2019-04-06T08:23:20.151Z,925.29
2019-04-06T08:24:51.970Z,925.25
2019-04-06T08:26:23.848Z,925.31
2019-04-06T08:27:55.602Z,925.32
2019-04-06T08:29:27.419Z,925.30
2019-04-06T08:30:59.337Z,925.29
2019-04-06T08:32:31.052Z,925.35
2019-04-06T08:34:02.869Z,925.30
2019-04-06T08:35:34.721Z,925.33
2019-04-06T08:37:06.506Z,925.30
2019-04-06T08:38:38.378Z,925.31
2019-04-06T08:40:10.137Z,925.31
2019-04-06T08:41:42.120Z,925.36
2019-04-06T08:43:13.773Z,925.39
2019-04-06T08:44:45.656Z,925.40
2019-04-06T08:46:17.405Z,925.41
2019-04-06T08:47:49.221Z,925.39
2019-04-06T08:49:21.140Z,925.41
2019-04-06T08:50:52.855Z,925.42
2019-04-06T08:52:24.673Z,925.50
2019-04-06T08:53:56.490Z,925.49
2019-04-06T08:55:28.306Z,925.46
2019-04-06T08:57:00.123Z,925.45
2019-04-06T08:58:31.942Z,925.41
2019-04-06T09:00:03.757Z,925.43
2019-04-06T09:01:35.792Z,925.44
2019-04-06T09:03:07.391Z,925.46
2019-04-06T09:04:39.207Z,925.52
2019-04-06T09:06:11.024Z,925.53
2019-04-06T09:07:42.941Z,925.61
2019-04-06T09:09:14.657Z,925.59
2019-04-06T09:10:46.474Z,925.59
2019-04-06T09:12:18.292Z,925.64
2019-04-06T09:13:50.108Z,925.70
2019-04-06T09:15:21.925Z,925.73
2019-04-06T09:16:53.741Z,925.75
2019-04-06T09:18:25.558Z,925.76
2019-04-06T09:19:57.475Z,925.76
2019-04-06T09:21:29.193Z,925.81
2019-04-06T09:23:01.008Z,925.79
2019-04-06T09:24:32.825Z,925.76
2019-04-06T09:26:04.743Z,925.84
2019-04-06T09:27:36.459Z,925.83
2019-04-06T09:29:08.275Z,925.84
2019-04-06T09:30:40.092Z,925.81
2019-04-06T09:32:12.181Z,925.82
2019-04-06T09:33:43.741Z,925.84
2019-04-06T09:35:15.541Z,925.83
2019-04-06T09:36:47.360Z,925.86
2019-04-06T09:38:19.175Z,925.86
2019-04-06T09:39:50.992Z,925.85
2019-04-06T09:41:22.810Z,925.87
2019-04-06T09:42:54.626Z,925.90
2019-04-06T09:44:26.543Z,925.83
2019-04-06T09:45:58.363Z,925.80
2019-04-06T09:47:30.336Z,925.84
2019-04-06T09:49:01.890Z,925.83
2019-04-06T09:50:33.706Z,925.90
2019-04-06T09:52:05.800Z,925.88
2019-04-06T09:53:37.354Z,925.92
2019-04-06T09:55:09.164Z,925.96
2019-04-06T09:56:40.980Z,926.03
2019-04-06T09:58:12.798Z,926.05
2019-04-06T09:59:44.615Z,926.08
2019-04-06T10:01:16.434Z,926.12
2019-04-06T10:02:48.361Z,926.08
2019-04-06T10:04:20.068Z,926.08
2019-04-06T10:05:51.885Z,926.07
2019-04-06T10:07:23.704Z,926.05
2019-04-06T10:08:55.529Z,926.09
2019-04-06T10:10:27.340Z,926.12
2019-04-06T10:11:59.156Z,926.09
2019-04-06T10:13:30.980Z,926.16
2019-04-06T10:15:02.791Z,926.21
2019-04-06T10:16:34.890Z,926.20
2019-04-06T10:18:06.430Z,926.23
2019-04-06T10:19:38.256Z,926.26
2019-04-06T10:21:10.266Z,926.28
2019-04-06T10:22:41.884Z,926.31
2019-04-06T10:24:13.704Z,926.32
2019-04-06T10:25:45.520Z,926.29
2019-04-06T10:27:17.548Z,926.28
2019-04-06T10:28:49.176Z,926.26
2019-04-06T10:30:20.981Z,926.25
2019-04-06T10:31:52.795Z,926.30
2019-04-06T10:33:24.614Z,926.38
2019-04-06T10:34:56.432Z,926.46
2019-04-06T10:36:31.064Z,926.51
2019-04-06T10:38:00.072Z,926.51
2019-04-06T10:39:31.991Z,926.48
2019-04-06T10:41:03.710Z,926.50
2019-04-06T10:42:35.530Z,926.56
2019-04-06T10:44:07.523Z,926.55
2019-04-06T10:45:39.440Z,926.56
2019-04-06T10:47:10.990Z,926.59
2019-04-06T10:48:42.811Z,926.64
2019-04-06T10:50:14.631Z,926.68
2019-04-06T10:51:46.551Z,926.62
2019-04-06T10:53:18.568Z,926.66
2019-04-06T10:54:50.093Z,926.67
2019-04-06T10:56:22.092Z,926.66
2019-04-06T10:57:53.846Z,926.74
2019-04-06T10:59:25.557Z,926.75
2019-04-06T11:00:57.375Z,926.81
2019-04-06T11:02:29.198Z,926.84
2019-04-06T11:04:01.016Z,926.83
2019-04-06T11:05:32.855Z,926.82
2019-04-06T11:07:04.658Z,926.85
2019-04-06T11:08:36.478Z,926.94
2019-04-06T11:10:08.299Z,927.04
2019-04-06T11:11:40.119Z,927.05
2019-04-06T11:13:11.942Z,927.01
2019-04-06T11:14:43.761Z,927.07
2019-04-06T11:16:15.681Z,927.03
2019-04-06T11:17:47.403Z,927.08
2019-04-06T11:19:19.223Z,927.07
2019-04-06T11:20:51.043Z,927.11
2019-04-06T11:22:22.866Z,927.10
2019-04-06T11:23:54.686Z,927.16
2019-04-06T11:25:26.565Z,927.14
2019-04-06T11:26:58.327Z,927.14
2019-04-06T11:28:30.385Z,927.12
2019-04-06T11:30:12.026Z,927.15
2019-04-06T11:31:33.787Z,927.19
2019-04-06T11:33:06.058Z,927.18
2019-04-06T11:34:37.530Z,927.23
2019-04-06T11:36:09.249Z,927.23
2019-04-06T11:37:41.074Z,927.23
2019-04-06T11:39:12.892Z,927.25
2019-04-06T11:40:45.186Z,927.26
2019-04-06T11:42:16.534Z,927.21
2019-04-06T11:43:48.355Z,927.24
2019-04-06T11:45:20.176Z,927.25
2019-04-06T11:46:52.017Z,927.30
2019-04-06T11:48:23.819Z,927.35
2019-04-06T11:49:55.641Z,927.36
2019-04-06T11:51:27.581Z,927.36
2019-04-06T11:52:59.486Z,927.41
2019-04-06T11:54:31.105Z,927.40
2019-04-06T11:56:02.928Z,927.40
2019-04-06T11:57:34.750Z,927.49
2019-04-06T11:59:06.572Z,927.50
2019-04-06T12:00:38.394Z,927.52
2019-04-06T12:02:10.221Z,927.51
2019-04-06T12:03:42.039Z,927.52
2019-04-06T12:05:13.862Z,927.50
2019-04-06T12:06:45.896Z,927.45
2019-04-06T12:08:17.507Z,927.48
2019-04-06T12:09:49.327Z,927.50
2019-04-06T12:11:21.252Z,927.57
2019-04-06T12:12:55.680Z,927.58
2019-04-06T12:14:24.795Z,927.59
2019-04-06T12:15:56.627Z,927.53
2019-04-06T12:17:28.794Z,927.59
2019-04-06T12:19:00.651Z,927.59
2019-04-06T12:20:32.087Z,927.56
2019-04-06T12:22:04.127Z,927.57
2019-04-06T12:23:35.733Z,927.61
2019-04-06T12:25:07.911Z,927.61
2019-04-06T12:26:39.451Z,927.63
2019-04-06T12:28:11.232Z,927.64
2019-04-06T12:29:43.126Z,927.71
2019-04-06T12:31:14.849Z,927.69
2019-04-06T12:32:46.814Z,927.64
2019-04-06T12:34:18.496Z,927.63
2019-04-06T12:35:50.320Z,927.52
2019-04-06T12:37:22.144Z,927.56
2019-04-06T12:38:54.032Z,927.59
2019-04-06T12:40:25.796Z,927.61
2019-04-06T12:41:57.615Z,927.61
2019-04-06T12:43:31.231Z,927.57
2019-04-06T12:45:01.348Z,927.54
2019-04-06T12:46:33.085Z,927.57
2019-04-06T12:48:05.348Z,927.48
2019-04-06T12:49:36.732Z,927.60
2019-04-06T12:51:08.558Z,927.65
2019-04-06T12:52:40.380Z,927.64
2019-04-06T12:54:12.570Z,927.69
2019-04-06T12:55:44.026Z,927.78
2019-04-06T12:57:15.851Z,927.82
2019-04-06T12:58:47.678Z,927.83
2019-04-06T13:00:19.498Z,927.76
2019-04-06T13:01:51.359Z,927.75
2019-04-06T13:03:23.268Z,927.68
2019-04-06T13:04:54.973Z,927.59
2019-04-06T13:06:26.900Z,927.61
2019-04-06T13:07:58.621Z,927.52
2019-04-06T13:09:30.447Z,927.60
2019-04-06T13:11:02.276Z,927.70
2019-04-06T13:12:34.451Z,927.72
2019-04-06T13:14:05.932Z,927.72
2019-04-06T13:15:37.743Z,927.62
2019-04-06T13:17:09.566Z,927.56
2019-04-06T13:18:41.401Z,927.56
2019-04-06T13:20:13.217Z,927.47
2019-04-06T13:21:45.044Z,927.48
2019-04-06T13:23:17.123Z,927.52
2019-04-06T13:24:49.033Z,927.51
2019-04-06T13:26:20.843Z,927.38
2019-04-06T13:27:52.451Z,927.40
2019-04-06T13:29:24.987Z,927.50
2019-04-06T13:31:01.826Z,927.50
2019-04-06T13:32:27.810Z,927.35
2019-04-06T13:33:59.649Z,927.30
2019-04-06T13:35:31.466Z,927.27
2019-04-06T13:37:06.403Z,927.26
2019-04-06T13:38:35.654Z,927.24
2019-04-06T13:40:06.948Z,927.18
2019-04-06T13:41:39.039Z,927.16
2019-04-06T13:43:10.719Z,927.26
2019-04-06T13:44:42.713Z,927.27
2019-04-06T13:46:14.261Z,927.22
2019-04-06T13:47:46.095Z,927.18
2019-04-06T13:49:17.918Z,927.15
2019-04-06T13:50:49.760Z,927.22
2019-04-06T13:52:21.719Z,927.24
2019-04-06T13:53:53.726Z,927.21
2019-04-06T13:55:25.475Z,927.27
2019-04-06T13:56:57.226Z,927.34
2019-04-06T13:58:28.865Z,927.39
2019-04-06T14:00:00.700Z,927.35
2019-04-06T14:01:32.928Z,927.44
2019-04-06T14:03:04.814Z,927.36
2019-04-06T14:06:08.333Z,927.40
2019-04-06T14:07:40.232Z,927.31
2019-04-06T14:09:11.671Z,927.40
2019-04-06T14:10:43.469Z,927.37
2019-04-06T14:12:15.468Z,927.43
2019-04-06T14:13:47.117Z,927.39
2019-04-06T14:15:18.941Z,927.43
2019-04-06T14:16:50.760Z,927.46
2019-04-06T14:18:22.581Z,927.51
2019-04-06T14:19:54.782Z,927.45
2019-04-06T14:21:26.612Z,927.37
2019-04-06T14:22:58.090Z,927.11
2019-04-06T14:24:29.949Z,926.99
2019-04-06T14:26:02.208Z,926.98
2019-04-06T14:27:33.564Z,927.03
2019-04-06T14:29:05.380Z,926.98
2019-04-06T14:30:37.229Z,926.87
2019-04-06T14:32:09.151Z,926.99
2019-04-06T14:33:40.866Z,927.00
2019-04-06T14:35:12.699Z,927.01
2019-04-06T14:36:45.233Z,927.06
2019-04-06T14:38:16.932Z,927.02
2019-04-06T14:39:48.197Z,926.94
2019-04-06T14:41:20.013Z,926.97
2019-04-06T14:42:51.842Z,926.92
2019-04-06T14:44:23.691Z,926.94
2019-04-06T14:45:55.509Z,927.07
2019-04-06T14:47:27.337Z,927.07
2019-04-06T14:49:10.522Z,927.19
2019-04-06T14:50:30.988Z,927.14
2019-04-06T14:52:03.240Z,926.93
2019-04-06T14:53:34.655Z,926.97
2019-04-06T14:55:06.488Z,926.87
2019-04-06T14:56:38.391Z,926.71
2019-04-06T14:58:10.242Z,926.75
2019-04-06T14:59:42.092Z,926.82
2019-04-06T15:01:14.160Z,926.70
2019-04-06T15:02:45.716Z,926.61
2019-04-06T15:04:18.190Z,926.51
2019-04-06T15:05:49.269Z,926.43
2019-04-06T15:07:21.392Z,926.31
2019-04-06T15:08:52.910Z,926.32
2019-04-06T15:10:24.732Z,926.32
2019-04-06T15:11:56.900Z,926.50
2019-04-06T15:13:28.656Z,926.67
2019-04-06T15:15:00.475Z,926.40
2019-04-06T15:16:32.363Z,926.32
2019-04-06T15:18:03.898Z,926.34
2019-04-06T15:19:35.725Z,926.31
2019-04-06T15:21:07.550Z,926.31
2019-04-06T15:22:39.347Z,926.17
2019-04-06T15:24:11.559Z,926.08
2019-04-06T15:25:43.354Z,926.03
2019-04-06T15:27:14.842Z,925.86
2019-04-06T15:28:46.661Z,925.81
2019-04-06T15:30:18.606Z,925.79
2019-04-06T15:31:51.784Z,925.89
2019-04-06T15:33:22.261Z,926.06
2019-04-06T15:34:53.975Z,926.14
2019-04-06T15:36:25.819Z,926.14
2019-04-06T15:37:57.977Z,925.98
2019-04-06T15:39:29.465Z,925.89
2019-04-06T15:41:01.286Z,925.75
2019-04-06T15:42:33.119Z,925.72
2019-04-06T15:44:04.947Z,925.76
2019-04-06T15:45:36.928Z,925.83
2019-04-06T15:47:08.664Z,925.77
2019-04-06T15:48:41.308Z,925.71
2019-04-06T15:50:12.249Z,925.78
2019-04-06T15:51:44.176Z,925.69
2019-04-06T15:53:16.204Z,925.67
2019-04-06T15:54:47.725Z,925.68
2019-04-06T15:56:19.567Z,925.74
2019-04-06T15:57:51.386Z,925.85
2019-04-06T15:59:23.337Z,925.71
2019-04-06T16:00:55.031Z,925.71
2019-04-06T16:02:26.940Z,925.64
2019-04-06T16:03:58.893Z,925.70
2019-04-06T16:05:30.507Z,925.74
2019-04-06T16:08:34.381Z,925.55
2019-04-06T16:10:06.329Z,925.49
2019-04-06T16:11:37.971Z,925.43
2019-04-06T16:13:09.685Z,925.41
2019-04-06T16:14:41.630Z,925.52
2019-04-06T16:16:13.358Z,925.47
2019-04-06T16:17:45.499Z,925.59
2019-04-06T16:19:16.937Z,925.62
2019-04-06T16:20:48.743Z,925.62
2019-04-06T16:22:21.171Z,925.51
2019-04-06T16:24:01.518Z,925.50
2019-04-06T16:25:24.222Z,925.31
2019-04-06T16:26:56.056Z,925.30
2019-04-06T16:28:27.973Z,925.47
2019-04-06T16:29:59.712Z,925.51
2019-04-06T16:31:31.546Z,925.43
2019-04-06T16:33:03.380Z,925.40
2019-04-06T16:34:35.372Z,925.34
2019-04-06T16:36:09.263Z,925.32
2019-04-06T16:37:38.978Z,925.23
2019-04-06T16:39:10.657Z,925.12
2019-04-06T16:40:42.825Z,925.13
2019-04-06T16:42:14.423Z,925.24
2019-04-06T16:43:46.158Z,925.15
2019-04-06T16:45:18.057Z,925.06
2019-04-06T16:46:49.884Z,925.15
2019-04-06T16:48:22.031Z,925.19
2019-04-06T16:49:53.461Z,925.24
2019-04-06T16:51:25.272Z,925.15
2019-04-06T16:52:57.826Z,924.91
2019-04-06T16:54:28.918Z,924.95
2019-04-06T16:56:00.756Z,925.09
2019-04-06T16:57:32.994Z,924.82
2019-04-06T16:59:04.830Z,924.73
2019-04-06T17:00:36.682Z,924.73
2019-04-06T17:02:08.183Z,924.67
2019-04-06T17:03:39.879Z,924.54
2019-04-06T17:05:12.151Z,924.41
2019-04-06T17:06:43.913Z,924.48
2019-04-06T17:08:15.338Z,924.59
2019-04-06T17:09:47.159Z,924.74
2019-04-06T17:11:19.136Z,924.92
2019-04-06T17:12:50.813Z,924.84
2019-04-06T17:14:22.636Z,924.77
2019-04-06T17:15:54.804Z,924.67
2019-04-06T17:17:26.662Z,924.59
2019-04-06T17:18:58.313Z,924.56
2019-04-06T17:20:29.928Z,924.36
2019-04-06T17:22:02.046Z,924.30
2019-04-06T17:23:34.042Z,924.28
2019-04-06T17:25:05.406Z,924.39
2019-04-06T17:26:37.221Z,924.65
2019-04-06T17:28:09.047Z,924.35
2019-04-06T17:29:40.874Z,924.44
2019-04-06T17:31:12.705Z,924.41
2019-04-06T17:32:44.827Z,924.36
2019-04-06T17:34:16.581Z,924.36
2019-04-06T17:35:48.361Z,924.40
2019-04-06T17:37:20.763Z,924.49
2019-04-06T17:38:52.239Z,924.43
2019-04-06T17:40:23.642Z,924.54
2019-04-06T17:41:55.562Z,924.56
2019-04-06T17:43:27.288Z,924.62
2019-04-06T17:44:59.107Z,924.71
2019-04-06T17:46:31.469Z,924.74
2019-04-06T17:48:02.751Z,924.67
2019-04-06T17:49:34.737Z,924.77
2019-04-06T17:51:06.526Z,924.73
2019-04-06T17:52:38.472Z,924.69
2019-04-06T17:54:10.043Z,924.70
2019-04-06T17:55:41.862Z,924.70
2019-04-06T17:57:14.120Z,924.63
2019-04-06T17:58:46.220Z,924.54
2019-04-06T18:00:17.508Z,924.45
2019-04-06T18:01:49.152Z,924.49
2019-04-06T18:03:21.020Z,924.49
2019-04-06T18:04:52.804Z,924.61
2019-04-06T18:06:24.600Z,924.67
2019-04-06T18:07:56.901Z,924.77
2019-04-06T18:09:28.246Z,924.92
2019-04-06T18:11:00.175Z,924.91
2019-04-06T18:12:32.382Z,924.90
2019-04-06T18:14:03.689Z,924.93
2019-04-06T18:15:36.167Z,924.90
2019-04-06T18:17:07.658Z,924.95
2019-04-06T18:18:39.245Z,924.90
2019-04-06T18:20:10.969Z,924.90
2019-04-06T18:21:42.787Z,924.87
2019-04-06T18:23:14.597Z,924.85
2019-04-06T18:24:46.771Z,924.88
2019-04-06T18:26:19.242Z,924.81
2019-04-06T18:27:50.556Z,924.82
2019-04-06T18:29:21.867Z,924.86
2019-04-06T18:30:53.745Z,924.77
2019-04-06T18:32:26.099Z,924.76
2019-04-06T18:33:57.318Z,924.72
2019-04-06T18:35:29.182Z,924.71
2019-04-06T18:37:01.372Z,924.67
2019-04-06T18:38:32.819Z,924.61
2019-04-06T18:40:04.586Z,924.66
2019-04-06T18:41:36.857Z,924.70
2019-04-06T18:43:08.819Z,924.68
2019-04-06T18:44:40.164Z,924.71
2019-04-06T18:46:12.214Z,924.72
2019-04-06T18:47:43.688Z,924.81
2019-04-06T18:49:15.487Z,924.84
2019-04-06T18:50:47.379Z,924.89
2019-04-06T18:52:19.121Z,924.93
2019-04-06T18:53:51.365Z,924.93
2019-04-06T18:55:23.277Z,924.93
2019-04-06T18:56:54.576Z,924.94
2019-04-06T18:58:26.401Z,924.94
2019-04-06T18:59:58.221Z,924.86
2019-04-06T19:01:30.206Z,924.81
2019-04-06T19:03:12.760Z,924.69
2019-04-06T19:04:33.958Z,924.70
2019-04-06T19:06:06.071Z,924.73
2019-04-06T19:07:37.291Z,924.74
2019-04-06T19:09:20.733Z,924.74